sensor_id;sensor_type;location;lat;lon;timestamp;pressure;altitude;pressure_sealevel;temperature;humidity
38612;BME280;24368;52.156;20.788;2023-08-08T00:00:50;99542.75;;;15.05;100.00
38612;BME280;24368;52.156;20.788;2023-08-08T00:06:07;99549.17;;;15.01;100.00
38612;BME280;24368;52.156;20.788;2023-08-08T00:11:08;99553.45;;;14.92;100.00
38612;BME280;24368;52.156;20.788;2023-08-08T00:16:09;99564.33;;;14.87;100.00
38612;BME280;24368;52.156;20.788;2023-08-08T00:21:10;99574.91;;;14.81;100.00
38612;BME280;24368;52.156;20.788;2023-08-08T00:26:12;99576.71;;;14.80;100.00
38612;BME280;24368;52.156;20.788;2023-08-08T00:31:13;99575.98;;;14.75;100.00
38612;BME280;24368;52.156;20.788;2023-08-08T00:36:17;99580.37;;;14.72;100.00
38612;BME280;24368;52.156;20.788;2023-08-08T00:41:18;99582.30;;;14.67;100.00
38612;BME280;24368;52.156;20.788;2023-08-08T00:46:21;99591.05;;;14.62;100.00
38612;BME280;24368;52.156;20.788;2023-08-08T00:51:25;99594.03;;;14.61;100.00
38612;BME280;24368;52.156;20.788;2023-08-08T00:56:26;99594.30;;;14.56;100.00
38612;BME280;24368;52.156;20.788;2023-08-08T01:01:27;99608.64;;;14.51;100.00
38612;BME280;24368;52.156;20.788;2023-08-08T01:06:38;99613.79;;;14.45;100.00
38612;BME280;24368;52.156;20.788;2023-08-08T01:11:42;99614.09;;;14.44;100.00
38612;BME280;24368;52.156;20.788;2023-08-08T01:16:49;99624.21;;;14.37;100.00
38612;BME280;24368;52.156;20.788;2023-08-08T01:21:53;99616.58;;;14.25;100.00
38612;BME280;24368;52.156;20.788;2023-08-08T01:26:55;99618.39;;;14.20;100.00
38612;BME280;24368;52.156;20.788;2023-08-08T01:31:57;99622.66;;;14.16;100.00
38612;BME280;24368;52.156;20.788;2023-08-08T01:42:06;99638.48;;;14.18;100.00
38612;BME280;24368;52.156;20.788;2023-08-08T01:47:08;99649.14;;;14.15;100.00
38612;BME280;24368;52.156;20.788;2023-08-08T01:52:09;99651.80;;;14.10;100.00
38612;BME280;24368;52.156;20.788;2023-08-08T01:57:10;99659.38;;;14.06;100.00
38612;BME280;24368;52.156;20.788;2023-08-08T02:02:12;99655.81;;;14.05;100.00
38612;BME280;24368;52.156;20.788;2023-08-08T02:07:13;99658.70;;;13.97;100.00
38612;BME280;24368;52.156;20.788;2023-08-08T02:12:14;99666.61;;;13.90;100.00
38612;BME280;24368;52.156;20.788;2023-08-08T02:17:15;99672.80;;;13.86;100.00
38612;BME280;24368;52.156;20.788;2023-08-08T02:22:17;99681.81;;;13.84;100.00
38612;BME280;24368;52.156;20.788;2023-08-08T02:27:18;99693.16;;;13.82;100.00
38612;BME280;24368;52.156;20.788;2023-08-08T02:32:19;99695.08;;;13.70;100.00
38612;BME280;24368;52.156;20.788;2023-08-08T02:37:20;99701.99;;;13.70;100.00
38612;BME280;24368;52.156;20.788;2023-08-08T02:42:21;99706.29;;;13.67;100.00
38612;BME280;24368;52.156;20.788;2023-08-08T02:47:22;99710.83;;;13.59;100.00
38612;BME280;24368;52.156;20.788;2023-08-08T02:52:24;99719.10;;;13.48;100.00
38612;BME280;24368;52.156;20.788;2023-08-08T02:57:25;99717.23;;;13.42;100.00
38612;BME280;24368;52.156;20.788;2023-08-08T03:02:26;99721.41;;;13.43;100.00
38612;BME280;24368;52.156;20.788;2023-08-08T03:07:27;99722.48;;;13.35;100.00
38612;BME280;24368;52.156;20.788;2023-08-08T03:12:28;99727.26;;;13.33;100.00
38612;BME280;24368;52.156;20.788;2023-08-08T03:17:29;99740.52;;;13.29;100.00
38612;BME280;24368;52.156;20.788;2023-08-08T03:22:30;99744.24;;;13.24;100.00
38612;BME280;24368;52.156;20.788;2023-08-08T03:27:31;99755.66;;;13.20;100.00
38612;BME280;24368;52.156;20.788;2023-08-08T03:32:32;99758.42;;;13.16;100.00
38612;BME280;24368;52.156;20.788;2023-08-08T03:37:34;99767.51;;;13.20;100.00
38612;BME280;24368;52.156;20.788;2023-08-08T03:42:35;99772.15;;;13.17;100.00
38612;BME280;24368;52.156;20.788;2023-08-08T03:47:36;99774.13;;;13.15;100.00
38612;BME280;24368;52.156;20.788;2023-08-08T03:52:37;99785.23;;;13.17;100.00
38612;BME280;24368;52.156;20.788;2023-08-08T03:57:39;99794.10;;;13.18;100.00
38612;BME280;24368;52.156;20.788;2023-08-08T04:02:40;99798.48;;;13.14;100.00
38612;BME280;24368;52.156;20.788;2023-08-08T04:07:41;99805.13;;;13.16;100.00
38612;BME280;24368;52.156;20.788;2023-08-08T04:12:42;99812.52;;;13.21;100.00
38612;BME280;24368;52.156;20.788;2023-08-08T04:17:43;99820.77;;;13.28;100.00
38612;BME280;24368;52.156;20.788;2023-08-08T04:22:44;99826.60;;;13.32;100.00
38612;BME280;24368;52.156;20.788;2023-08-08T04:27:45;99831.25;;;13.36;100.00
38612;BME280;24368;52.156;20.788;2023-08-08T04:32:46;99839.59;;;13.40;100.00
38612;BME280;24368;52.156;20.788;2023-08-08T04:37:47;99839.41;;;13.44;100.00
38612;BME280;24368;52.156;20.788;2023-08-08T04:42:48;99847.17;;;13.42;100.00
38612;BME280;24368;52.156;20.788;2023-08-08T04:47:49;99847.96;;;13.42;100.00
38612;BME280;24368;52.156;20.788;2023-08-08T04:52:50;99858.53;;;13.58;100.00
38612;BME280;24368;52.156;20.788;2023-08-08T04:57:51;99864.48;;;13.64;100.00
38612;BME280;24368;52.156;20.788;2023-08-08T05:02:52;99870.48;;;13.62;100.00
38612;BME280;24368;52.156;20.788;2023-08-08T05:07:54;99873.88;;;13.67;100.00
38612;BME280;24368;52.156;20.788;2023-08-08T05:12:55;99876.80;;;13.75;100.00
38612;BME280;24368;52.156;20.788;2023-08-08T05:17:56;99878.04;;;13.84;100.00
38612;BME280;24368;52.156;20.788;2023-08-08T05:22:57;99881.25;;;13.85;100.00
38612;BME280;24368;52.156;20.788;2023-08-08T05:27:58;99886.41;;;13.89;100.00
38612;BME280;24368;52.156;20.788;2023-08-08T05:33:00;99890.83;;;13.95;100.00
38612;BME280;24368;52.156;20.788;2023-08-08T05:38:01;99889.90;;;13.92;100.00
38612;BME280;24368;52.156;20.788;2023-08-08T05:43:03;99904.51;;;13.89;100.00
38612;BME280;24368;52.156;20.788;2023-08-08T05:48:04;99906.69;;;13.91;100.00
38612;BME280;24368;52.156;20.788;2023-08-08T05:53:06;99909.23;;;13.98;100.00
38612;BME280;24368;52.156;20.788;2023-08-08T05:58:07;99910.41;;;14.02;100.00
38612;BME280;24368;52.156;20.788;2023-08-08T06:03:13;99913.19;;;14.02;100.00
38612;BME280;24368;52.156;20.788;2023-08-08T06:08:23;99920.13;;;14.08;100.00
38612;BME280;24368;52.156;20.788;2023-08-08T06:13:24;99925.52;;;14.14;99.97
38612;BME280;24368;52.156;20.788;2023-08-08T06:18:25;99934.49;;;14.13;99.12
38612;BME280;24368;52.156;20.788;2023-08-08T06:23:26;99937.05;;;14.11;99.74
38612;BME280;24368;52.156;20.788;2023-08-08T06:28:27;99948.27;;;14.15;98.93
38612;BME280;24368;52.156;20.788;2023-08-08T06:33:30;99945.23;;;14.30;99.73
38612;BME280;24368;52.156;20.788;2023-08-08T06:38:31;99955.61;;;14.33;98.00
38612;BME280;24368;52.156;20.788;2023-08-08T06:43:34;99958.22;;;14.36;97.48
38612;BME280;24368;52.156;20.788;2023-08-08T06:48:35;99957.38;;;14.48;97.12
38612;BME280;24368;52.156;20.788;2023-08-08T06:53:36;99962.31;;;14.53;94.92
38612;BME280;24368;52.156;20.788;2023-08-08T06:58:37;99958.25;;;14.53;93.72
38612;BME280;24368;52.156;20.788;2023-08-08T07:03:39;99953.23;;;14.59;94.00
38612;BME280;24368;52.156;20.788;2023-08-08T07:08:40;99960.64;;;14.76;94.05
38612;BME280;24368;52.156;20.788;2023-08-08T07:13:41;99961.27;;;14.79;93.07
38612;BME280;24368;52.156;20.788;2023-08-08T07:18:42;99957.02;;;14.81;92.04
38612;BME280;24368;52.156;20.788;2023-08-08T07:23:43;99967.84;;;14.82;91.85
38612;BME280;24368;52.156;20.788;2023-08-08T07:28:44;99957.15;;;14.87;91.85
38612;BME280;24368;52.156;20.788;2023-08-08T07:33:45;99959.80;;;14.94;91.95
38612;BME280;24368;52.156;20.788;2023-08-08T07:38:46;99971.23;;;15.02;89.85
38612;BME280;24368;52.156;20.788;2023-08-08T07:43:47;99962.86;;;15.08;90.32
38612;BME280;24368;52.156;20.788;2023-08-08T07:48:48;99970.77;;;15.11;88.30
38612;BME280;24368;52.156;20.788;2023-08-08T07:53:49;99968.05;;;15.19;89.85
38612;BME280;24368;52.156;20.788;2023-08-08T07:58:50;99962.80;;;15.28;87.95
38612;BME280;24368;52.156;20.788;2023-08-08T08:03:52;99968.02;;;15.36;87.75
38612;BME280;24368;52.156;20.788;2023-08-08T08:08:53;99967.59;;;15.40;86.80
38612;BME280;24368;52.156;20.788;2023-08-08T08:13:54;99972.98;;;15.40;85.30
38612;BME280;24368;52.156;20.788;2023-08-08T08:18:55;99977.73;;;15.42;84.02
38612;BME280;24368;52.156;20.788;2023-08-08T08:23:56;99974.14;;;15.46;85.49
38612;BME280;24368;52.156;20.788;2023-08-08T08:28:57;99971.27;;;15.59;85.31
38612;BME280;24368;52.156;20.788;2023-08-08T08:33:58;99970.60;;;15.62;85.44
38612;BME280;24368;52.156;20.788;2023-08-08T08:38:59;99966.91;;;15.67;87.21
38612;BME280;24368;52.156;20.788;2023-08-08T08:44:01;99967.75;;;15.91;86.46
38612;BME280;24368;52.156;20.788;2023-08-08T08:49:02;99969.94;;;15.96;81.59
38612;BME280;24368;52.156;20.788;2023-08-08T08:54:06;99959.69;;;15.96;80.94
38612;BME280;24368;52.156;20.788;2023-08-08T08:59:08;99969.81;;;16.04;81.58
38612;BME280;24368;52.156;20.788;2023-08-08T09:04:09;99974.51;;;16.22;81.86
38612;BME280;24368;52.156;20.788;2023-08-08T09:09:10;99974.72;;;16.11;79.48
38612;BME280;24368;52.156;20.788;2023-08-08T09:14:20;99981.45;;;16.11;79.14
38612;BME280;24368;52.156;20.788;2023-08-08T09:19:22;99979.69;;;16.26;75.65
38612;BME280;24368;52.156;20.788;2023-08-08T09:24:23;99992.46;;;16.42;72.37
38612;BME280;24368;52.156;20.788;2023-08-08T09:29:24;99980.42;;;16.66;73.00
38612;BME280;24368;52.156;20.788;2023-08-08T09:34:25;99985.27;;;16.87;75.04
38612;BME280;24368;52.156;20.788;2023-08-08T09:39:29;99985.57;;;17.14;75.75
38612;BME280;24368;52.156;20.788;2023-08-08T09:44:30;99996.75;;;17.07;74.34
38612;BME280;24368;52.156;20.788;2023-08-08T09:49:32;99990.46;;;17.24;72.58
38612;BME280;24368;52.156;20.788;2023-08-08T09:54:38;99995.27;;;17.10;71.64
38612;BME280;24368;52.156;20.788;2023-08-08T09:59:40;99994.65;;;17.53;70.19
38612;BME280;24368;52.156;20.788;2023-08-08T10:04:41;99987.91;;;17.29;69.14
38612;BME280;24368;52.156;20.788;2023-08-08T10:09:43;100000.77;;;16.90;69.72
38612;BME280;24368;52.156;20.788;2023-08-08T10:14:45;99998.00;;;16.87;68.15
38612;BME280;24368;52.156;20.788;2023-08-08T10:19:56;99994.11;;;17.11;67.24
38612;BME280;24368;52.156;20.788;2023-08-08T10:24:57;99995.64;;;17.25;66.35
38612;BME280;24368;52.156;20.788;2023-08-08T10:30:06;99991.16;;;17.29;64.84
38612;BME280;24368;52.156;20.788;2023-08-08T10:35:11;99995.02;;;17.05;67.08
38612;BME280;24368;52.156;20.788;2023-08-08T10:40:20;99996.48;;;16.77;66.83
38612;BME280;24368;52.156;20.788;2023-08-08T10:45:29;99996.65;;;17.08;66.96
38612;BME280;24368;52.156;20.788;2023-08-08T10:50:32;99993.73;;;17.27;66.12
38612;BME280;24368;52.156;20.788;2023-08-08T10:55:36;99998.14;;;17.15;66.01
38612;BME280;24368;52.156;20.788;2023-08-08T11:00:39;100009.60;;;17.15;64.59
38612;BME280;24368;52.156;20.788;2023-08-08T11:05:40;100001.70;;;17.33;62.62
38612;BME280;24368;52.156;20.788;2023-08-08T11:10:45;99998.69;;;17.82;60.62
38612;BME280;24368;52.156;20.788;2023-08-08T11:15:51;99999.61;;;17.94;56.73
38612;BME280;24368;52.156;20.788;2023-08-08T11:20:53;100011.92;;;18.50;56.59
38612;BME280;24368;52.156;20.788;2023-08-08T11:25:54;100010.23;;;18.05;56.52
38612;BME280;24368;52.156;20.788;2023-08-08T11:30:55;100004.39;;;17.81;58.06
38612;BME280;24368;52.156;20.788;2023-08-08T11:35:58;100009.70;;;17.88;58.35
38612;BME280;24368;52.156;20.788;2023-08-08T11:40:59;100003.37;;;18.13;59.00
38612;BME280;24368;52.156;20.788;2023-08-08T11:46:00;99997.58;;;18.37;58.88
38612;BME280;24368;52.156;20.788;2023-08-08T11:51:04;100001.26;;;18.43;58.41
38612;BME280;24368;52.156;20.788;2023-08-08T11:56:05;100005.70;;;18.45;58.53
38612;BME280;24368;52.156;20.788;2023-08-08T12:01:08;100006.73;;;18.44;56.91
38612;BME280;24368;52.156;20.788;2023-08-08T12:06:14;100011.98;;;18.82;55.57
38612;BME280;24368;52.156;20.788;2023-08-08T12:11:15;100017.78;;;19.22;52.76
38612;BME280;24368;52.156;20.788;2023-08-08T12:16:17;100015.64;;;18.80;54.76
38612;BME280;24368;52.156;20.788;2023-08-08T12:21:24;100011.30;;;18.52;54.86
38612;BME280;24368;52.156;20.788;2023-08-08T12:26:25;100005.27;;;19.14;54.12
38612;BME280;24368;52.156;20.788;2023-08-08T12:31:26;100013.59;;;19.27;54.32
38612;BME280;24368;52.156;20.788;2023-08-08T12:36:28;100011.86;;;18.98;53.73
38612;BME280;24368;52.156;20.788;2023-08-08T12:41:29;100016.29;;;19.22;51.91
38612;BME280;24368;52.156;20.788;2023-08-08T12:46:30;100017.36;;;19.36;52.41
38612;BME280;24368;52.156;20.788;2023-08-08T12:51:32;100000.70;;;19.66;54.30
38612;BME280;24368;52.156;20.788;2023-08-08T12:56:33;100013.45;;;19.34;54.36
38612;BME280;24368;52.156;20.788;2023-08-08T13:01:34;100020.73;;;18.76;54.74
38612;BME280;24368;52.156;20.788;2023-08-08T13:06:35;100025.52;;;18.49;56.51
38612;BME280;24368;52.156;20.788;2023-08-08T13:11:36;100031.66;;;18.28;57.26
38612;BME280;24368;52.156;20.788;2023-08-08T13:16:38;100035.55;;;18.09;56.25
38612;BME280;24368;52.156;20.788;2023-08-08T13:21:39;100037.52;;;18.00;57.24
38612;BME280;24368;52.156;20.788;2023-08-08T13:26:41;100053.27;;;17.71;60.00
38612;BME280;24368;52.156;20.788;2023-08-08T13:31:42;100072.56;;;17.28;63.02
38612;BME280;24368;52.156;20.788;2023-08-08T13:36:43;100072.10;;;17.08;65.82
38612;BME280;24368;52.156;20.788;2023-08-08T13:41:44;100078.15;;;16.81;70.22
38612;BME280;24368;52.156;20.788;2023-08-08T13:46:45;100070.52;;;16.78;72.11
38612;BME280;24368;52.156;20.788;2023-08-08T13:51:46;100059.66;;;16.99;73.27
38612;BME280;24368;52.156;20.788;2023-08-08T13:56:47;100053.73;;;17.21;73.13
38612;BME280;24368;52.156;20.788;2023-08-08T14:01:48;100053.58;;;17.42;71.31
38612;BME280;24368;52.156;20.788;2023-08-08T14:06:49;100053.04;;;17.53;71.54
38612;BME280;24368;52.156;20.788;2023-08-08T14:11:50;100053.14;;;17.71;70.44
38612;BME280;24368;52.156;20.788;2023-08-08T14:16:51;100048.67;;;18.25;66.59
38612;BME280;24368;52.156;20.788;2023-08-08T14:21:52;100043.30;;;18.75;65.50
38612;BME280;24368;52.156;20.788;2023-08-08T14:26:53;100041.26;;;19.06;62.07
38612;BME280;24368;52.156;20.788;2023-08-08T14:31:54;100044.69;;;19.42;59.85
38612;BME280;24368;52.156;20.788;2023-08-08T14:36:55;100042.92;;;19.54;56.90
38612;BME280;24368;52.156;20.788;2023-08-08T14:41:56;100042.19;;;19.31;57.95
38612;BME280;24368;52.156;20.788;2023-08-08T14:46:57;100042.73;;;19.08;57.99
38612;BME280;24368;52.156;20.788;2023-08-08T14:51:58;100048.15;;;19.17;58.75
38612;BME280;24368;52.156;20.788;2023-08-08T14:56:59;100045.86;;;19.59;56.65
38612;BME280;24368;52.156;20.788;2023-08-08T15:02:02;100042.57;;;19.82;55.51
38612;BME280;24368;52.156;20.788;2023-08-08T15:07:03;100045.52;;;19.64;55.43
38612;BME280;24368;52.156;20.788;2023-08-08T15:12:04;100043.46;;;19.58;55.22
38612;BME280;24368;52.156;20.788;2023-08-08T15:17:05;100040.00;;;19.46;54.75
38612;BME280;24368;52.156;20.788;2023-08-08T15:22:07;100041.84;;;19.16;55.55
38612;BME280;24368;52.156;20.788;2023-08-08T15:27:08;100043.59;;;18.86;56.42
38612;BME280;24368;52.156;20.788;2023-08-08T15:32:09;100044.35;;;18.74;57.47
38612;BME280;24368;52.156;20.788;2023-08-08T15:37:10;100044.65;;;18.67;59.06
38612;BME280;24368;52.156;20.788;2023-08-08T15:42:13;100042.50;;;18.87;57.92
38612;BME280;24368;52.156;20.788;2023-08-08T15:47:14;100039.30;;;18.97;57.32
38612;BME280;24368;52.156;20.788;2023-08-08T15:52:16;100050.68;;;18.85;57.43
38612;BME280;24368;52.156;20.788;2023-08-08T15:57:18;100045.05;;;18.95;57.50
38612;BME280;24368;52.156;20.788;2023-08-08T16:02:19;100047.34;;;19.11;56.85
38612;BME280;24368;52.156;20.788;2023-08-08T16:07:20;100051.34;;;19.09;57.11
38612;BME280;24368;52.156;20.788;2023-08-08T16:12:22;100055.78;;;18.86;57.20
38612;BME280;24368;52.156;20.788;2023-08-08T16:17:23;100055.83;;;18.66;58.23
38612;BME280;24368;52.156;20.788;2023-08-08T16:22:24;100059.95;;;18.60;58.82
38612;BME280;24368;52.156;20.788;2023-08-08T16:27:26;100059.23;;;18.52;59.20
38612;BME280;24368;52.156;20.788;2023-08-08T16:32:28;100068.42;;;18.38;59.98
38612;BME280;24368;52.156;20.788;2023-08-08T16:37:30;100068.79;;;18.19;61.29
38612;BME280;24368;52.156;20.788;2023-08-08T16:42:31;100071.20;;;18.05;62.48
38612;BME280;24368;52.156;20.788;2023-08-08T16:47:31;100069.84;;;17.90;62.94
38612;BME280;24368;52.156;20.788;2023-08-08T16:52:33;100065.52;;;17.85;62.43
38612;BME280;24368;52.156;20.788;2023-08-08T16:57:34;100065.53;;;17.87;62.35
38612;BME280;24368;52.156;20.788;2023-08-08T17:02:35;100065.20;;;17.81;62.52
38612;BME280;24368;52.156;20.788;2023-08-08T17:07:36;100064.10;;;17.80;61.45
38612;BME280;24368;52.156;20.788;2023-08-08T17:12:37;100064.75;;;17.76;61.55
38612;BME280;24368;52.156;20.788;2023-08-08T17:17:39;100069.46;;;17.73;61.54
38612;BME280;24368;52.156;20.788;2023-08-08T17:22:40;100071.05;;;17.77;60.94
38612;BME280;24368;52.156;20.788;2023-08-08T17:27:44;100068.39;;;17.79;60.44
38612;BME280;24368;52.156;20.788;2023-08-08T17:32:46;100074.97;;;17.69;60.69
38612;BME280;24368;52.156;20.788;2023-08-08T17:37:47;100076.55;;;17.59;61.45
38612;BME280;24368;52.156;20.788;2023-08-08T17:42:48;100078.81;;;17.47;62.37
38612;BME280;24368;52.156;20.788;2023-08-08T17:47:49;100080.09;;;17.39;62.77
38612;BME280;24368;52.156;20.788;2023-08-08T17:52:50;100082.92;;;17.28;62.70
38612;BME280;24368;52.156;20.788;2023-08-08T17:57:51;100086.92;;;17.24;62.74
38612;BME280;24368;52.156;20.788;2023-08-08T18:02:52;100085.66;;;17.20;62.57
38612;BME280;24368;52.156;20.788;2023-08-08T18:07:53;100093.79;;;17.17;62.84
38612;BME280;24368;52.156;20.788;2023-08-08T18:12:54;100093.00;;;17.13;63.34
38612;BME280;24368;52.156;20.788;2023-08-08T18:17:59;100091.46;;;17.04;64.16
38612;BME280;24368;52.156;20.788;2023-08-08T18:23:36;100092.52;;;16.97;65.36
38612;BME280;24368;52.156;20.788;2023-08-08T18:28:37;100097.63;;;16.87;66.53
38612;BME280;24368;52.156;20.788;2023-08-08T18:34:24;100097.71;;;16.76;67.22
38612;BME280;24368;52.156;20.788;2023-08-08T18:39:06;100102.75;;;16.70;67.98
38612;BME280;24368;52.156;20.788;2023-08-08T18:44:10;100101.38;;;16.64;68.33
38612;BME280;24368;52.156;20.788;2023-08-08T18:49:12;100111.05;;;16.51;69.56
38612;BME280;24368;52.156;20.788;2023-08-08T18:54:13;100108.60;;;16.44;70.54
38612;BME280;24368;52.156;20.788;2023-08-08T18:59:15;100109.02;;;16.37;70.88
38612;BME280;24368;52.156;20.788;2023-08-08T19:04:16;100105.88;;;16.30;71.48
38612;BME280;24368;52.156;20.788;2023-08-08T19:09:18;100103.30;;;16.26;72.11
38612;BME280;24368;52.156;20.788;2023-08-08T19:14:20;100106.84;;;16.20;72.77
38612;BME280;24368;52.156;20.788;2023-08-08T19:19:21;100106.22;;;16.11;73.78
38612;BME280;24368;52.156;20.788;2023-08-08T19:24:22;100110.85;;;16.04;74.66
38612;BME280;24368;52.156;20.788;2023-08-08T19:29:24;100105.55;;;15.98;75.41
38612;BME280;24368;52.156;20.788;2023-08-08T19:34:25;100105.55;;;15.87;76.41
38612;BME280;24368;52.156;20.788;2023-08-08T19:39:26;100101.45;;;15.80;77.02
38612;BME280;24368;52.156;20.788;2023-08-08T19:44:28;100103.20;;;15.71;77.92
38612;BME280;24368;52.156;20.788;2023-08-08T19:49:32;100103.34;;;15.65;78.37
38612;BME280;24368;52.156;20.788;2023-08-08T19:54:33;100107.98;;;15.54;79.33
38612;BME280;24368;52.156;20.788;2023-08-08T19:59:34;100104.83;;;15.43;79.98
38612;BME280;24368;52.156;20.788;2023-08-08T20:04:35;100102.40;;;15.41;79.79
38612;BME280;24368;52.156;20.788;2023-08-08T20:09:36;100098.38;;;15.42;79.80
38612;BME280;24368;52.156;20.788;2023-08-08T20:14:37;100096.80;;;15.35;80.45
38612;BME280;24368;52.156;20.788;2023-08-08T20:19:38;100097.92;;;15.32;80.79
38612;BME280;24368;52.156;20.788;2023-08-08T20:24:39;100094.34;;;15.26;81.16
38612;BME280;24368;52.156;20.788;2023-08-08T20:29:41;100094.83;;;15.21;81.56
38612;BME280;24368;52.156;20.788;2023-08-08T20:34:42;100087.59;;;15.21;81.77
38612;BME280;24368;52.156;20.788;2023-08-08T20:39:43;100090.11;;;15.08;82.69
38612;BME280;24368;52.156;20.788;2023-08-08T20:44:45;100092.36;;;15.04;82.96
38612;BME280;24368;52.156;20.788;2023-08-08T20:49:46;100094.48;;;14.95;83.61
38612;BME280;24368;52.156;20.788;2023-08-08T20:54:47;100093.25;;;14.86;84.12
38612;BME280;24368;52.156;20.788;2023-08-08T20:59:48;100097.02;;;14.80;84.74
38612;BME280;24368;52.156;20.788;2023-08-08T21:04:50;100095.44;;;14.80;84.98
38612;BME280;24368;52.156;20.788;2023-08-08T21:09:52;100086.75;;;14.76;85.16
38612;BME280;24368;52.156;20.788;2023-08-08T21:14:53;100083.77;;;14.73;85.59
38612;BME280;24368;52.156;20.788;2023-08-08T21:19:54;100088.09;;;14.71;85.89
38612;BME280;24368;52.156;20.788;2023-08-08T21:24:57;100091.27;;;14.66;86.41
38612;BME280;24368;52.156;20.788;2023-08-08T21:29:58;100098.50;;;14.65;86.57
38612;BME280;24368;52.156;20.788;2023-08-08T21:34:59;100096.92;;;14.57;87.26
38612;BME280;24368;52.156;20.788;2023-08-08T21:40:00;100099.51;;;14.57;87.78
38612;BME280;24368;52.156;20.788;2023-08-08T21:45:01;100099.98;;;14.56;88.31
38612;BME280;24368;52.156;20.788;2023-08-08T21:50:02;100106.29;;;14.54;88.86
38612;BME280;24368;52.156;20.788;2023-08-08T21:55:09;100098.37;;;14.55;89.15
38612;BME280;24368;52.156;20.788;2023-08-08T22:00:11;100098.48;;;14.51;89.96
38612;BME280;24368;52.156;20.788;2023-08-08T22:05:14;100097.73;;;14.48;90.59
38612;BME280;24368;52.156;20.788;2023-08-08T22:10:15;100106.10;;;14.50;90.81
38612;BME280;24368;52.156;20.788;2023-08-08T22:15:16;100117.63;;;14.51;91.57
38612;BME280;24368;52.156;20.788;2023-08-08T22:20:18;100123.32;;;14.60;91.82
38612;BME280;24368;52.156;20.788;2023-08-08T22:25:19;100128.33;;;14.61;92.61
38612;BME280;24368;52.156;20.788;2023-08-08T22:30:20;100135.86;;;14.51;94.48
38612;BME280;24368;52.156;20.788;2023-08-08T22:35:22;100136.15;;;14.34;97.95
38612;BME280;24368;52.156;20.788;2023-08-08T22:40:23;100126.16;;;14.21;100.00
38612;BME280;24368;52.156;20.788;2023-08-08T22:45:24;100128.64;;;14.16;100.00
38612;BME280;24368;52.156;20.788;2023-08-08T22:50:27;100120.77;;;14.07;100.00
38612;BME280;24368;52.156;20.788;2023-08-08T22:55:29;100109.55;;;14.12;100.00
38612;BME280;24368;52.156;20.788;2023-08-08T23:00:30;100098.77;;;14.19;100.00
38612;BME280;24368;52.156;20.788;2023-08-08T23:05:32;100103.24;;;14.23;100.00
38612;BME280;24368;52.156;20.788;2023-08-08T23:10:33;100103.98;;;14.06;100.00
38612;BME280;24368;52.156;20.788;2023-08-08T23:15:34;100112.36;;;13.97;100.00
38612;BME280;24368;52.156;20.788;2023-08-08T23:20:35;100122.70;;;13.89;100.00
38612;BME280;24368;52.156;20.788;2023-08-08T23:25:36;100121.05;;;13.89;100.00
38612;BME280;24368;52.156;20.788;2023-08-08T23:30:37;100122.11;;;13.95;100.00
38612;BME280;24368;52.156;20.788;2023-08-08T23:35:38;100129.94;;;13.92;100.00
38612;BME280;24368;52.156;20.788;2023-08-08T23:40:39;100130.84;;;13.86;100.00
38612;BME280;24368;52.156;20.788;2023-08-08T23:45:41;100128.98;;;13.79;100.00
38612;BME280;24368;52.156;20.788;2023-08-08T23:50:42;100122.73;;;13.77;100.00
38612;BME280;24368;52.156;20.788;2023-08-08T23:55:43;100125.45;;;13.79;100.00
